createdAt,value
2022-10-30T00:00:30.000Z,17.8
2022-10-30T00:04:03.000Z,15.4
2022-10-30T00:07:35.000Z,18.5
2022-10-30T00:11:08.000Z,19.8
2022-10-30T00:14:41.000Z,16.5
2022-10-30T00:17:32.000Z,15.8
2022-10-30T00:21:04.000Z,16.9
2022-10-30T00:24:37.000Z,16
2022-10-30T00:28:10.000Z,19.5
2022-10-30T00:31:42.000Z,19.3
2022-10-30T00:35:15.000Z,17.7
2022-10-30T00:38:47.000Z,13.8
2022-10-30T00:42:20.000Z,19.6
2022-10-30T00:45:53.000Z,22.8
2022-10-30T00:49:25.000Z,13.9
2022-10-30T00:52:58.000Z,15.1
2022-10-30T00:55:49.000Z,14.8
2022-10-30T00:59:21.000Z,17.3
2022-10-30T01:02:54.000Z,21.7
2022-10-30T01:06:29.000Z,14.9
2022-10-30T01:10:01.000Z,20.3
2022-10-30T01:13:34.000Z,21.1
2022-10-30T01:17:06.000Z,25
2022-10-30T01:20:39.000Z,23.4
2022-10-30T01:24:12.000Z,13.4
2022-10-30T01:27:44.000Z,24.1
2022-10-30T01:31:17.000Z,17.6
2022-10-30T01:34:08.000Z,17.1
2022-10-30T01:37:41.000Z,15.6
2022-10-30T01:41:13.000Z,16.3
2022-10-30T01:44:46.000Z,16.6
2022-10-30T01:48:18.000Z,20
2022-10-30T01:51:51.000Z,22.3
2022-10-30T01:55:24.000Z,17.8
2022-10-30T01:58:56.000Z,17.2
2022-10-30T02:02:29.000Z,17
2022-10-30T02:06:02.000Z,14.7
2022-10-30T02:09:34.000Z,25.4
2022-10-30T02:12:25.000Z,26.4
2022-10-30T02:15:58.000Z,21.1
2022-10-30T02:19:30.000Z,21.6
2022-10-30T02:23:03.000Z,21.3
2022-10-30T02:26:36.000Z,20.1
2022-10-30T02:30:09.000Z,19.1
2022-10-30T02:33:41.000Z,19.8
2022-10-30T02:37:14.000Z,16.1
2022-10-30T02:40:46.000Z,20.3
2022-10-30T02:44:19.000Z,16.5
2022-10-30T02:47:52.000Z,14.5
2022-10-30T02:50:43.000Z,14.9
2022-10-30T02:54:16.000Z,19.6
2022-10-30T02:57:48.000Z,19.6
2022-10-30T03:01:21.000Z,20.9
2022-10-30T03:04:54.000Z,19.3
2022-10-30T03:08:26.000Z,20.2
2022-10-30T03:11:59.000Z,21.1
2022-10-30T03:15:32.000Z,20.2
2022-10-30T03:19:04.000Z,16.6
2022-10-30T03:22:37.000Z,17.3
2022-10-30T03:26:10.000Z,18.6
2022-10-30T03:29:01.000Z,24.5
2022-10-30T03:32:34.000Z,15.8
2022-10-30T03:36:06.000Z,19.2
2022-10-30T03:39:39.000Z,23.2
2022-10-30T03:43:11.000Z,24.9
2022-10-30T03:46:44.000Z,24.7
2022-10-30T03:50:17.000Z,19
2022-10-30T03:53:49.000Z,19.3
2022-10-30T03:57:22.000Z,16.2
2022-10-30T04:00:54.000Z,18.4
2022-10-30T04:04:27.000Z,22.4
2022-10-30T04:07:18.000Z,15.2
2022-10-30T04:10:51.000Z,13.1
2022-10-30T04:14:24.000Z,17.1
2022-10-30T04:17:57.000Z,14.9
2022-10-30T04:21:29.000Z,17.4
2022-10-30T04:25:02.000Z,13.2
2022-10-30T04:28:35.000Z,14.4
2022-10-30T04:32:07.000Z,9.8
2022-10-30T04:35:40.000Z,17.4
2022-10-30T04:39:12.000Z,19.5
2022-10-30T04:42:45.000Z,13.1
2022-10-30T04:45:36.000Z,15.1
2022-10-30T04:49:09.000Z,13.2
2022-10-30T04:52:42.000Z,22.8
2022-10-30T04:56:14.000Z,12.7
2022-10-30T04:59:47.000Z,14.1
2022-10-30T05:03:19.000Z,18.1
2022-10-30T05:06:52.000Z,19.6
2022-10-30T05:10:25.000Z,14.9
2022-10-30T05:13:58.000Z,16.9
2022-10-30T05:17:31.000Z,17.6
2022-10-30T05:21:04.000Z,15.6
2022-10-30T05:23:55.000Z,17.8
2022-10-30T05:27:27.000Z,16
2022-10-30T05:31:00.000Z,17.3
2022-10-30T05:34:33.000Z,18.5
2022-10-30T05:38:05.000Z,18.3
2022-10-30T05:41:38.000Z,19
2022-10-30T05:45:10.000Z,22.3
2022-10-30T05:48:43.000Z,17.6
2022-10-30T05:52:16.000Z,17.5
2022-10-30T05:55:48.000Z,22
2022-10-30T05:59:21.000Z,17.3
2022-10-30T06:02:12.000Z,16.9
2022-10-30T06:05:45.000Z,16.4
2022-10-30T06:09:18.000Z,19.4
2022-10-30T06:12:50.000Z,13.8
2022-10-30T06:19:58.000Z,12.5
2022-10-30T06:23:30.000Z,18.2
2022-10-30T06:27:03.000Z,19.3
2022-10-30T06:30:35.000Z,19.6
2022-10-30T06:34:08.000Z,17.6
2022-10-30T06:37:41.000Z,17
2022-10-30T06:40:32.000Z,18.3
2022-10-30T06:44:05.000Z,18.3
2022-10-30T06:47:37.000Z,18.9
2022-10-30T06:51:10.000Z,19.3
2022-10-30T06:54:43.000Z,15.2
2022-10-30T06:58:15.000Z,20.1
2022-10-30T07:01:48.000Z,17.4
2022-10-30T07:05:26.000Z,16.5
2022-10-30T07:08:58.000Z,18.3
2022-10-30T07:12:31.000Z,16.2
2022-10-30T07:16:04.000Z,14.1
2022-10-30T07:18:55.000Z,19
2022-10-30T07:22:30.000Z,20.2
2022-10-30T07:26:02.000Z,14.5
2022-10-30T07:29:35.000Z,17.2
2022-10-30T07:33:08.000Z,21.6
2022-10-30T07:36:40.000Z,23.9
2022-10-30T07:40:13.000Z,27.9
2022-10-30T07:43:49.000Z,23.4
2022-10-30T07:47:21.000Z,23.8
2022-10-30T07:50:54.000Z,27
2022-10-30T07:54:26.000Z,23.8
2022-10-30T07:57:17.000Z,25.9
2022-10-30T08:00:50.000Z,22.9
2022-10-30T08:04:23.000Z,25
2022-10-30T08:07:56.000Z,23.8
2022-10-30T08:11:29.000Z,33.6
2022-10-30T08:15:01.000Z,34.9
2022-10-30T08:18:34.000Z,27.4
2022-10-30T08:22:07.000Z,30.5
2022-10-30T08:25:39.000Z,25.1
2022-10-30T08:29:12.000Z,20.6
2022-10-30T08:32:45.000Z,23.7
2022-10-30T08:35:36.000Z,20.6
2022-10-30T08:39:09.000Z,23.3
2022-10-30T08:42:41.000Z,20.6
2022-10-30T08:46:14.000Z,22.1
2022-10-30T08:49:47.000Z,22.7
2022-10-30T08:53:19.000Z,20.9
2022-10-30T08:56:52.000Z,19.1
2022-10-30T09:00:25.000Z,18.1
2022-10-30T09:03:57.000Z,19
2022-10-30T09:07:30.000Z,20.2
2022-10-30T09:11:03.000Z,15.8
2022-10-30T09:13:54.000Z,20
2022-10-30T09:17:27.000Z,21.2
2022-10-30T09:20:59.000Z,21.1
2022-10-30T09:24:32.000Z,16.5
2022-10-30T09:28:04.000Z,20.8
2022-10-30T09:31:37.000Z,17.3
2022-10-30T09:35:10.000Z,18.9
2022-10-30T09:38:42.000Z,21
2022-10-30T09:42:15.000Z,20.7
2022-10-30T09:45:47.000Z,17.6
2022-10-30T09:49:22.000Z,17.8
2022-10-30T09:52:13.000Z,18.2
2022-10-30T09:55:46.000Z,14.6
2022-10-30T09:59:19.000Z,17.1
2022-10-30T10:02:51.000Z,18.7
2022-10-30T10:06:26.000Z,13.8
2022-10-30T10:09:59.000Z,14.9
2022-10-30T10:13:31.000Z,14
2022-10-30T10:17:04.000Z,16.6
2022-10-30T10:20:37.000Z,12
2022-10-30T10:24:09.000Z,17.4
2022-10-30T10:27:45.000Z,14.3
2022-10-30T10:30:36.000Z,10.5
2022-10-30T10:34:09.000Z,13.8
2022-10-30T10:37:41.000Z,12.5
2022-10-30T10:41:14.000Z,12.1
2022-10-30T10:44:46.000Z,12.7
2022-10-30T10:48:19.000Z,9.7
2022-10-30T10:51:52.000Z,15.7
2022-10-30T10:55:24.000Z,9.3
2022-10-30T10:58:57.000Z,11.3
2022-10-30T11:02:29.000Z,15.2
2022-10-30T11:06:02.000Z,16.2
2022-10-30T11:08:53.000Z,14.1
2022-10-30T11:12:26.000Z,13.4
2022-10-30T11:16:01.000Z,11.8
2022-10-30T11:19:34.000Z,12.4
2022-10-30T11:23:07.000Z,12.3
2022-10-30T11:26:39.000Z,10.4
2022-10-30T11:30:12.000Z,12.1
2022-10-30T11:33:44.000Z,9.6
2022-10-30T11:37:17.000Z,10.3
2022-10-30T11:40:50.000Z,11.9
2022-10-30T11:44:22.000Z,11
2022-10-30T11:47:14.000Z,12.2
2022-10-30T11:50:46.000Z,13.1
2022-10-30T11:54:19.000Z,9.5
2022-10-30T11:57:52.000Z,13.2
2022-10-30T12:01:25.000Z,10.9
2022-10-30T12:04:58.000Z,13.2
2022-10-30T12:08:31.000Z,11.3
2022-10-30T12:12:04.000Z,10.6
2022-10-30T12:15:36.000Z,10.9
2022-10-30T12:19:09.000Z,10.8
2022-10-30T12:22:41.000Z,10.7
2022-10-30T12:25:33.000Z,9.9
2022-10-30T12:29:05.000Z,11.8
2022-10-30T12:32:38.000Z,12.5
2022-10-30T12:36:10.000Z,9.5
2022-10-30T12:39:43.000Z,8.8
2022-10-30T12:43:16.000Z,11.1
2022-10-30T12:46:48.000Z,12.4
2022-10-30T12:50:21.000Z,8.2
2022-10-30T12:53:53.000Z,7.2
2022-10-30T12:57:26.000Z,10.6
2022-10-30T13:00:59.000Z,12.2
2022-10-30T13:03:50.000Z,9.3
2022-10-30T13:07:23.000Z,8.8
2022-10-30T13:10:55.000Z,10.3
2022-10-30T13:14:28.000Z,5.5
2022-10-30T13:18:00.000Z,6.9
2022-10-30T13:21:33.000Z,5.1
2022-10-30T13:25:06.000Z,6.7
2022-10-30T13:28:39.000Z,8.1
2022-10-30T13:32:11.000Z,4.2
2022-10-30T13:35:44.000Z,6.5
2022-10-30T13:39:16.000Z,5.6
2022-10-30T13:42:07.000Z,7.9
2022-10-30T13:45:42.000Z,6.4
2022-10-30T13:49:14.000Z,9.9
2022-10-30T13:52:47.000Z,8.6
2022-10-30T13:56:19.000Z,6.7
2022-10-30T13:59:52.000Z,8.3
2022-10-30T14:03:25.000Z,8.4
2022-10-30T14:06:57.000Z,6
2022-10-30T14:10:30.000Z,8.4
2022-10-30T14:14:03.000Z,7.8
2022-10-30T14:17:36.000Z,5.8
2022-10-30T14:20:27.000Z,8.5
2022-10-30T14:23:59.000Z,7.2
2022-10-30T14:27:32.000Z,5.4
2022-10-30T14:31:04.000Z,6
2022-10-30T14:34:37.000Z,7.7
2022-10-30T14:38:10.000Z,9.4
2022-10-30T14:41:42.000Z,6
2022-10-30T14:45:15.000Z,5.9
2022-10-30T14:48:48.000Z,7.6
2022-10-30T14:52:20.000Z,5.7
2022-10-30T14:55:53.000Z,8.2
2022-10-30T14:58:44.000Z,8
2022-10-30T15:02:17.000Z,6.1
2022-10-30T15:05:50.000Z,6.6
2022-10-30T15:09:23.000Z,6.4
2022-10-30T15:12:55.000Z,4.8
2022-10-30T15:16:52.000Z,7.7
2022-10-30T15:20:29.000Z,9.2
2022-10-30T15:24:02.000Z,9.2
2022-10-30T15:27:34.000Z,14.1
2022-10-30T15:31:07.000Z,9.1
2022-10-30T15:34:40.000Z,13.5
2022-10-30T15:37:31.000Z,5.7
2022-10-30T15:41:03.000Z,9.8
2022-10-30T15:44:36.000Z,10.5
2022-10-30T15:48:08.000Z,10.1
2022-10-30T15:51:41.000Z,12.2
2022-10-30T15:55:14.000Z,11.1
2022-10-30T15:59:30.000Z,10.2
2022-10-30T16:03:03.000Z,8.9
2022-10-30T16:06:35.000Z,8.8
2022-10-30T16:10:08.000Z,6.7
2022-10-30T16:13:41.000Z,6.8
2022-10-30T16:16:32.000Z,7.6
2022-10-30T16:20:05.000Z,11.1
2022-10-30T16:23:37.000Z,9.3
2022-10-30T16:27:10.000Z,9
2022-10-30T16:30:42.000Z,7.7
2022-10-30T16:34:15.000Z,8.3
2022-10-30T16:37:54.000Z,7.9
2022-10-30T16:41:27.000Z,9.4
2022-10-30T16:45:00.000Z,15.1
2022-10-30T16:48:33.000Z,11.9
2022-10-30T16:52:05.000Z,10.7
2022-10-30T16:54:57.000Z,9.3
2022-10-30T16:58:29.000Z,7.5
2022-10-30T17:02:02.000Z,14.2
2022-10-30T17:05:35.000Z,9.6
2022-10-30T17:09:07.000Z,12.6
2022-10-30T17:12:40.000Z,12.2
2022-10-30T17:16:13.000Z,10.3
2022-10-30T17:19:50.000Z,12.6
2022-10-30T17:23:23.000Z,9.4
2022-10-30T17:26:57.000Z,14.2
2022-10-30T17:30:29.000Z,13.9
2022-10-30T17:33:20.000Z,12.2
2022-10-30T17:36:59.000Z,12.7
2022-10-30T17:40:31.000Z,9.5
2022-10-30T17:44:04.000Z,13.7
2022-10-30T17:47:36.000Z,9
2022-10-30T17:51:09.000Z,11.7
2022-10-30T17:54:42.000Z,10.5
2022-10-30T17:58:14.000Z,15.1
2022-10-30T18:01:47.000Z,11.6
2022-10-30T18:05:20.000Z,13.3
2022-10-30T18:08:52.000Z,12.7
2022-10-30T18:11:43.000Z,13.2
2022-10-30T18:15:16.000Z,7.2
2022-10-30T18:18:54.000Z,10.2
2022-10-30T18:22:26.000Z,11.4
2022-10-30T18:25:59.000Z,11.1
2022-10-30T18:29:31.000Z,11.9
2022-10-30T18:33:04.000Z,13.3
2022-10-30T18:36:37.000Z,13.4
2022-10-30T18:40:09.000Z,12
2022-10-30T18:43:47.000Z,11.3
2022-10-30T18:47:20.000Z,11.5
2022-10-30T18:50:11.000Z,12.8
2022-10-30T18:53:44.000Z,14.3
2022-10-30T18:57:17.000Z,14.3
2022-10-30T19:00:57.000Z,12
2022-10-30T19:04:37.000Z,15.5
2022-10-30T19:08:10.000Z,10.9
2022-10-30T19:11:43.000Z,11.4
2022-10-30T19:15:16.000Z,12.3
2022-10-30T19:18:49.000Z,13.5
2022-10-30T19:22:49.000Z,9.6
2022-10-30T19:26:22.000Z,13.1
2022-10-30T19:29:13.000Z,13.4
2022-10-30T19:32:46.000Z,13.6
2022-10-30T19:36:19.000Z,11.7
2022-10-30T19:39:51.000Z,14.1
2022-10-30T19:43:24.000Z,10.9
2022-10-30T19:46:56.000Z,11.8
2022-10-30T19:50:55.000Z,8.4
2022-10-30T19:54:28.000Z,10.5
2022-10-30T19:58:00.000Z,11
2022-10-30T20:01:33.000Z,12.5
2022-10-30T20:05:06.000Z,15.1
2022-10-30T20:07:57.000Z,13.5
2022-10-30T20:11:30.000Z,14
2022-10-30T20:15:02.000Z,12.2
2022-10-30T20:18:35.000Z,13.1
2022-10-30T20:22:08.000Z,14.8
2022-10-30T20:25:40.000Z,17.6
2022-10-30T20:29:13.000Z,14.2
2022-10-30T20:32:45.000Z,14.7
2022-10-30T20:36:18.000Z,13.6
2022-10-30T20:39:51.000Z,10.2
2022-10-30T20:43:23.000Z,15
2022-10-30T20:46:14.000Z,15.4
2022-10-30T20:49:47.000Z,11.5
2022-10-30T20:53:19.000Z,15.5
2022-10-30T20:56:52.000Z,10
2022-10-30T21:00:25.000Z,16.8
2022-10-30T21:03:58.000Z,12
2022-10-30T21:07:43.000Z,16.7
2022-10-30T21:11:15.000Z,18.5
2022-10-30T21:14:48.000Z,13.4
2022-10-30T21:18:21.000Z,11
2022-10-30T21:21:53.000Z,11.2
2022-10-30T21:24:45.000Z,14.4
2022-10-30T21:28:17.000Z,16.1
2022-10-30T21:31:50.000Z,11.3
2022-10-30T21:35:22.000Z,11.1
2022-10-30T21:38:55.000Z,11
2022-10-30T21:42:28.000Z,16.6
2022-10-30T21:46:00.000Z,11.4
2022-10-30T21:49:33.000Z,16.5
2022-10-30T21:53:06.000Z,15.8
2022-10-30T21:56:38.000Z,13.8
2022-10-30T22:00:11.000Z,15.7
2022-10-30T22:03:02.000Z,14.5
2022-10-30T22:06:34.000Z,13.8
2022-10-30T22:10:07.000Z,11.8
2022-10-30T22:13:40.000Z,12.9
2022-10-30T22:17:12.000Z,12.5
2022-10-30T22:20:45.000Z,12.5
2022-10-30T22:24:18.000Z,10
2022-10-30T22:27:50.000Z,9.4
2022-10-30T22:31:24.000Z,14.7
2022-10-30T22:34:57.000Z,18
2022-10-30T22:38:30.000Z,13.2
2022-10-30T22:41:20.000Z,10.8
2022-10-30T22:44:58.000Z,11.7
2022-10-30T22:48:31.000Z,13.4
2022-10-30T22:52:03.000Z,13.1
2022-10-30T22:55:36.000Z,9.1
2022-10-30T22:59:08.000Z,14.1
2022-10-30T23:02:41.000Z,13.4
2022-10-30T23:06:14.000Z,13.4
2022-10-30T23:09:47.000Z,15.7
2022-10-30T23:13:19.000Z,12.6
2022-10-30T23:16:52.000Z,12.3
2022-10-30T23:19:43.000Z,15.2
2022-10-30T23:23:15.000Z,11.4
2022-10-30T23:26:48.000Z,16.8
2022-10-30T23:30:20.000Z,13.9
2022-10-30T23:33:53.000Z,9.4
2022-10-30T23:37:26.000Z,15.2
2022-10-30T23:40:58.000Z,13.4
2022-10-30T23:44:31.000Z,11.8
2022-10-30T23:48:03.000Z,13.8
2022-10-30T23:51:36.000Z,12.8
2022-10-30T23:55:09.000Z,18.6
2022-10-30T23:58:00.000Z,11
